createdAt,value
2022-11-15T00:00:48.748Z,10.90
2022-11-15T00:03:19.551Z,6.75
2022-11-15T00:05:46.822Z,5.97
2022-11-15T00:08:13.482Z,5.57
2022-11-15T00:10:40.552Z,6.38
2022-11-15T00:13:13.991Z,3.42
2022-11-15T00:15:42.121Z,6.32
2022-11-15T00:18:14.212Z,4.35
2022-11-15T00:23:07.907Z,5.72
2022-11-15T00:25:34.847Z,4.75
2022-11-15T00:28:02.053Z,5.25
2022-11-15T00:30:29.250Z,3.80
2022-11-15T00:32:56.107Z,2.72
2022-11-15T00:35:23.030Z,3.60
2022-11-15T00:37:49.659Z,6.03
2022-11-15T00:40:16.370Z,2.97
2022-11-15T00:42:43.060Z,3.00
2022-11-15T00:45:10.421Z,4.75
2022-11-15T00:47:36.981Z,3.75
2022-11-15T00:50:03.915Z,3.00
2022-11-15T00:52:30.429Z,3.35
2022-11-15T00:54:56.942Z,4.78
2022-11-15T00:57:23.520Z,3.83
2022-11-15T00:59:50.055Z,6.38
2022-11-15T01:02:16.545Z,4.07
2022-11-15T01:04:43.088Z,4.47
2022-11-15T01:07:09.707Z,3.63
2022-11-15T01:09:36.279Z,4.85
2022-11-15T01:12:02.785Z,3.35
2022-11-15T01:14:29.277Z,4.38
2022-11-15T01:16:55.803Z,5.65
2022-11-15T01:19:22.565Z,5.38
2022-11-15T01:21:52.533Z,6.15
2022-11-15T01:24:19.177Z,2.78
2022-11-15T01:26:45.727Z,5.15
2022-11-15T01:29:12.260Z,4.20
2022-11-15T01:31:39.145Z,6.68
2022-11-15T01:34:05.736Z,8.82
2022-11-15T01:36:32.403Z,5.03
2022-11-15T01:39:00.164Z,4.05
2022-11-15T01:41:29.815Z,6.32
2022-11-15T01:44:17.666Z,5.47
2022-11-15T01:46:48.277Z,5.93
2022-11-15T01:49:20.608Z,2.50
2022-11-15T01:51:47.474Z,3.22
2022-11-15T01:54:18.099Z,4.25
2022-11-15T01:56:54.349Z,4.50
2022-11-15T01:59:21.075Z,7.28
2022-11-15T02:01:48.093Z,9.15
2022-11-15T02:04:20.157Z,4.95
2022-11-15T02:09:14.965Z,2.85
2022-11-15T02:11:42.540Z,11.68
2022-11-15T02:14:10.998Z,4.72
2022-11-15T02:16:55.983Z,5.68
2022-11-15T02:19:34.835Z,5.10
2022-11-15T02:22:10.584Z,3.78
2022-11-15T02:25:04.157Z,6.18
2022-11-15T02:27:48.784Z,4.18
2022-11-15T02:30:22.605Z,3.97
2022-11-15T02:32:56.149Z,4.60
2022-11-15T02:35:38.402Z,5.78
2022-11-15T02:40:56.701Z,5.85
2022-11-15T02:43:50.897Z,4.28
2022-11-15T02:47:05.805Z,4.50
2022-11-15T02:49:34.876Z,4.38
2022-11-15T02:52:01.767Z,5.25
2022-11-15T02:54:32.784Z,5.65
2022-11-15T02:57:12.084Z,2.95
2022-11-15T02:59:57.440Z,9.52
2022-11-15T03:02:42.594Z,3.53
2022-11-15T03:05:27.886Z,5.60
2022-11-15T03:08:13.101Z,5.63
2022-11-15T03:10:54.924Z,3.80
2022-11-15T03:13:24.210Z,7.70
2022-11-15T03:16:15.827Z,8.15
2022-11-15T03:18:52.630Z,13.30
2022-11-15T03:21:22.798Z,8.98
2022-11-15T03:23:51.945Z,7.03
2022-11-15T03:26:22.979Z,8.43
2022-11-15T03:28:58.342Z,8.88
2022-11-15T03:31:50.562Z,10.95
2022-11-15T03:34:41.401Z,10.68
2022-11-15T03:37:09.343Z,8.65
2022-11-15T03:39:35.942Z,11.32
2022-11-15T03:42:05.181Z,6.35
2022-11-15T03:44:34.728Z,16.05
2022-11-15T03:47:13.478Z,6.65
2022-11-15T03:49:45.500Z,7.10
2022-11-15T03:54:49.092Z,9.23
2022-11-15T03:57:15.660Z,6.50
2022-11-15T03:59:42.214Z,4.85
2022-11-15T04:02:08.752Z,7.90
2022-11-15T04:04:35.275Z,11.40
2022-11-15T04:07:02.098Z,6.85
2022-11-15T04:09:28.617Z,11.93
2022-11-15T04:11:55.206Z,12.15
2022-11-15T04:14:21.736Z,6.38
2022-11-15T04:16:48.267Z,6.20
2022-11-15T04:19:43.616Z,4.88
2022-11-15T04:22:28.482Z,5.93
2022-11-15T04:24:55.002Z,13.60
2022-11-15T04:27:21.553Z,7.50
2022-11-15T04:29:48.092Z,7.30
2022-11-15T04:32:14.646Z,5.90
2022-11-15T04:34:41.180Z,7.07
2022-11-15T04:37:13.767Z,5.10
2022-11-15T04:39:41.625Z,3.65
2022-11-15T04:42:08.965Z,8.07
2022-11-15T04:44:36.170Z,5.35
2022-11-15T04:47:03.553Z,5.75
2022-11-15T04:49:30.198Z,4.72
2022-11-15T04:51:56.771Z,3.92
2022-11-15T04:54:23.336Z,5.45
2022-11-15T04:56:49.973Z,4.50
2022-11-15T04:59:16.474Z,9.00
2022-11-15T05:01:45.121Z,5.28
2022-11-15T05:04:21.028Z,7.22
2022-11-15T05:06:49.157Z,6.63
2022-11-15T05:09:16.092Z,4.65
2022-11-15T05:11:43.073Z,6.55
2022-11-15T05:14:09.709Z,3.53
2022-11-15T05:16:37.001Z,4.93
2022-11-15T05:19:04.400Z,2.67
2022-11-15T05:21:31.412Z,6.22
2022-11-15T05:23:58.053Z,10.20
2022-11-15T05:26:24.706Z,9.90
2022-11-15T05:28:58.741Z,8.77
2022-11-15T05:31:26.601Z,9.82
2022-11-15T05:33:55.865Z,16.23
2022-11-15T05:36:39.861Z,17.77
2022-11-15T05:39:09.215Z,14.45
2022-11-15T05:41:45.351Z,22.23
2022-11-15T05:44:16.473Z,10.45
2022-11-15T05:46:44.160Z,6.80
2022-11-15T05:49:14.567Z,10.70
2022-11-15T05:51:43.009Z,11.75
2022-11-15T05:54:10.477Z,14.15
2022-11-15T05:56:37.023Z,13.27
2022-11-15T05:59:04.246Z,6.05
2022-11-15T06:01:30.954Z,5.45
2022-11-15T06:03:57.451Z,6.03
2022-11-15T06:06:24.024Z,6.40
2022-11-15T06:08:50.539Z,11.18
2022-11-15T06:11:17.094Z,11.55
2022-11-15T06:13:43.633Z,4.72
2022-11-15T06:16:10.213Z,5.90
2022-11-15T06:18:37.610Z,6.47
2022-11-15T06:21:05.131Z,6.70
2022-11-15T06:23:35.900Z,9.43
2022-11-15T06:26:03.994Z,5.45
2022-11-15T06:28:32.446Z,7.82
2022-11-15T06:31:06.744Z,8.65
2022-11-15T06:33:34.155Z,10.20
2022-11-15T06:36:02.898Z,8.52
2022-11-15T06:38:29.437Z,10.75
2022-11-15T06:40:56.245Z,18.08
2022-11-15T06:43:22.823Z,8.57
2022-11-15T06:45:49.368Z,9.45
2022-11-15T06:48:15.874Z,8.27
2022-11-15T06:50:42.524Z,9.63
2022-11-15T06:53:10.199Z,7.90
2022-11-15T06:55:36.719Z,8.15
2022-11-15T06:58:03.230Z,8.85
2022-11-15T07:00:29.822Z,16.67
2022-11-15T07:02:56.446Z,8.38
2022-11-15T07:05:23.064Z,10.23
2022-11-15T07:07:55.101Z,16.10
2022-11-15T07:12:55.505Z,18.98
2022-11-15T07:15:24.652Z,18.50
2022-11-15T07:17:51.613Z,12.73
2022-11-15T07:20:19.360Z,15.65
2022-11-15T07:22:46.366Z,20.05
2022-11-15T07:25:13.060Z,21.48
2022-11-15T07:27:39.620Z,18.17
2022-11-15T07:30:06.999Z,16.58
2022-11-15T07:32:33.650Z,13.35
2022-11-15T07:35:00.208Z,17.15
2022-11-15T07:37:26.722Z,21.42
2022-11-15T07:39:53.294Z,15.20
2022-11-15T07:42:38.552Z,21.25
2022-11-15T07:45:06.097Z,16.58
2022-11-15T07:47:32.607Z,24.35
2022-11-15T07:49:59.147Z,22.27
2022-11-15T07:52:25.849Z,17.02
2022-11-15T07:54:52.487Z,27.58
2022-11-15T07:57:19.019Z,27.05
2022-11-15T07:59:45.655Z,25.40
2022-11-15T08:02:12.839Z,19.50
2022-11-15T08:04:39.539Z,23.48
2022-11-15T08:07:06.285Z,28.98
2022-11-15T08:09:32.863Z,29.48
2022-11-15T08:11:59.354Z,30.15
2022-11-15T08:14:25.920Z,26.25
2022-11-15T08:16:53.527Z,28.88
2022-11-15T08:19:20.042Z,23.88
2022-11-15T08:21:46.629Z,27.60
2022-11-15T08:24:13.197Z,33.17
2022-11-15T08:26:40.557Z,33.38
2022-11-15T08:29:09.668Z,32.70
2022-11-15T08:31:37.691Z,25.20
2022-11-15T08:34:05.510Z,18.70
2022-11-15T08:36:41.629Z,21.92
2022-11-15T08:39:13.532Z,20.95
2022-11-15T08:41:40.467Z,22.17
2022-11-15T08:44:07.054Z,23.60
2022-11-15T08:46:33.635Z,23.80
2022-11-15T08:49:00.285Z,26.42
2022-11-15T08:51:26.785Z,25.80
2022-11-15T08:53:53.307Z,22.20
2022-11-15T08:56:19.941Z,29.42
2022-11-15T08:58:47.830Z,20.15
2022-11-15T09:01:20.153Z,27.23
2022-11-15T09:03:46.827Z,27.83
2022-11-15T09:06:13.697Z,28.90
2022-11-15T09:08:47.586Z,29.15
2022-11-15T09:11:17.440Z,36.08
2022-11-15T09:13:44.043Z,27.73
2022-11-15T09:16:12.812Z,22.30
2022-11-15T09:18:39.347Z,21.25
2022-11-15T09:21:05.970Z,21.80
2022-11-15T09:23:32.557Z,22.60
2022-11-15T09:26:01.827Z,26.27
2022-11-15T09:28:29.438Z,24.17
2022-11-15T09:31:04.688Z,20.92
2022-11-15T09:33:31.921Z,20.55
2022-11-15T09:36:09.187Z,19.88
2022-11-15T09:38:36.106Z,18.98
2022-11-15T09:41:15.022Z,18.42
2022-11-15T09:44:09.440Z,16.20
2022-11-15T09:46:54.402Z,19.08
2022-11-15T09:49:22.081Z,16.42
2022-11-15T09:51:51.866Z,19.27
2022-11-15T09:54:50.976Z,20.00
2022-11-15T09:57:27.210Z,19.10
2022-11-15T10:03:11.178Z,25.50
2022-11-15T10:05:42.085Z,17.58
2022-11-15T10:08:22.369Z,18.33
2022-11-15T10:11:09.674Z,25.10
2022-11-15T10:13:48.618Z,22.38
2022-11-15T10:16:44.275Z,16.77
2022-11-15T10:19:26.898Z,15.52
2022-11-15T10:22:35.582Z,18.75
2022-11-15T10:25:25.377Z,20.45
2022-11-15T10:28:03.096Z,16.63
2022-11-15T10:30:37.713Z,20.45
2022-11-15T10:33:37.901Z,17.92
2022-11-15T10:36:10.329Z,13.45
2022-11-15T10:38:49.031Z,14.18
2022-11-15T10:41:17.903Z,17.55
2022-11-15T10:43:44.587Z,14.25
2022-11-15T10:46:45.186Z,13.02
2022-11-15T10:49:17.390Z,11.15
2022-11-15T10:52:00.617Z,14.07
2022-11-15T10:54:38.689Z,14.10
2022-11-15T10:57:19.285Z,15.38
2022-11-15T10:59:54.300Z,10.40
2022-11-15T11:02:34.649Z,8.40
2022-11-15T11:05:02.448Z,10.90
2022-11-15T11:07:32.484Z,13.75
2022-11-15T11:10:49.770Z,7.55
2022-11-15T11:13:27.751Z,7.80
2022-11-15T11:16:19.513Z,9.35
2022-11-15T11:18:54.967Z,10.07
2022-11-15T11:21:50.693Z,9.30
2022-11-15T11:24:35.147Z,6.65
2022-11-15T11:27:31.055Z,9.70
2022-11-15T11:30:17.393Z,7.25
2022-11-15T11:33:05.899Z,8.50
2022-11-15T11:35:56.319Z,12.80
2022-11-15T11:38:38.225Z,9.18
2022-11-15T11:41:32.411Z,6.85
2022-11-15T11:44:08.068Z,5.43
2022-11-15T11:46:43.774Z,5.55
2022-11-15T11:49:16.126Z,11.45
2022-11-15T11:52:08.725Z,5.72
2022-11-15T11:54:48.354Z,6.00
2022-11-15T11:57:39.737Z,5.65
2022-11-15T12:00:18.909Z,12.90
2022-11-15T12:03:08.411Z,6.13
2022-11-15T12:05:44.325Z,5.03
2022-11-15T12:08:29.508Z,4.97
2022-11-15T12:11:06.414Z,8.85
2022-11-15T12:13:37.710Z,6.30
2022-11-15T12:16:10.572Z,6.38
2022-11-15T12:18:38.391Z,6.88
2022-11-15T12:21:15.268Z,9.77
2022-11-15T12:23:53.356Z,4.75
2022-11-15T12:26:40.862Z,7.65
2022-11-15T12:29:20.710Z,4.45
2022-11-15T12:31:51.850Z,5.70
2022-11-15T12:34:21.017Z,6.40
2022-11-15T12:36:48.884Z,5.55
2022-11-15T12:39:16.999Z,5.15
2022-11-15T12:41:45.689Z,4.25
2022-11-15T12:44:33.966Z,6.57
2022-11-15T12:47:08.353Z,3.63
2022-11-15T12:49:38.040Z,5.20
2022-11-15T12:52:07.842Z,7.20
2022-11-15T12:54:37.278Z,5.15
2022-11-15T12:57:03.744Z,6.78
2022-11-15T12:59:49.034Z,5.38
2022-11-15T13:02:25.232Z,7.63
2022-11-15T13:04:53.789Z,5.00
2022-11-15T13:07:35.639Z,6.32
2022-11-15T13:10:11.218Z,10.70
2022-11-15T13:12:40.236Z,9.25
2022-11-15T13:15:12.835Z,7.82
2022-11-15T13:17:52.781Z,7.30
2022-11-15T13:20:33.130Z,6.15
2022-11-15T13:23:05.397Z,4.38
2022-11-15T13:25:41.034Z,5.70
2022-11-15T13:28:10.698Z,5.72
2022-11-15T13:30:38.258Z,4.15
2022-11-15T13:33:17.532Z,5.53
2022-11-15T13:35:48.918Z,6.88
2022-11-15T13:38:31.229Z,5.65
2022-11-15T13:40:59.923Z,4.82
2022-11-15T13:43:28.625Z,5.05
2022-11-15T13:46:13.177Z,5.80
2022-11-15T13:48:44.353Z,9.80
2022-11-15T13:51:36.331Z,4.20
2022-11-15T13:54:30.877Z,5.60
2022-11-15T13:56:57.417Z,5.05
2022-11-15T13:59:48.906Z,6.50
2022-11-15T14:02:27.025Z,4.90
2022-11-15T14:05:05.771Z,10.27
2022-11-15T14:07:33.563Z,8.55
2022-11-15T14:10:25.700Z,3.50
2022-11-15T14:12:53.842Z,8.70
2022-11-15T14:15:38.134Z,5.90
2022-11-15T14:18:06.245Z,4.47
2022-11-15T14:20:39.115Z,8.45
2022-11-15T14:23:26.780Z,8.05
2022-11-15T14:26:00.284Z,6.90
2022-11-15T14:28:26.906Z,9.13
2022-11-15T14:30:56.228Z,6.75
2022-11-15T14:33:37.150Z,4.80
2022-11-15T14:36:23.950Z,3.40
2022-11-15T14:38:50.595Z,10.75
2022-11-15T14:41:25.565Z,6.78
2022-11-15T14:43:53.372Z,5.63
2022-11-15T14:46:20.445Z,6.30
2022-11-15T14:48:46.990Z,6.20
2022-11-15T14:51:18.762Z,4.43
2022-11-15T14:53:46.431Z,9.93
2022-11-15T14:56:14.512Z,5.55
2022-11-15T14:58:41.543Z,5.90
2022-11-15T15:01:25.279Z,6.72
2022-11-15T15:03:53.139Z,6.03
2022-11-15T15:06:20.139Z,7.43
2022-11-15T15:08:49.421Z,4.60
2022-11-15T15:11:22.403Z,4.40
2022-11-15T15:13:49.042Z,6.72
2022-11-15T15:16:15.575Z,6.05
2022-11-15T15:18:42.099Z,9.57
2022-11-15T15:21:26.159Z,5.15
2022-11-15T15:23:56.471Z,10.30
2022-11-15T15:26:26.304Z,2.83
2022-11-15T15:28:52.880Z,8.65
2022-11-15T15:31:20.029Z,6.97
2022-11-15T15:33:46.754Z,7.95
2022-11-15T15:36:15.316Z,6.03
2022-11-15T15:38:42.402Z,7.30
2022-11-15T15:41:16.853Z,4.32
2022-11-15T15:43:43.787Z,7.40
2022-11-15T15:46:16.184Z,6.47
2022-11-15T15:48:43.118Z,9.00
2022-11-15T15:51:17.047Z,7.13
2022-11-15T15:53:47.371Z,6.32
2022-11-15T15:56:13.911Z,7.43
2022-11-15T15:58:40.463Z,8.93
2022-11-15T16:01:07.060Z,9.80
2022-11-15T16:03:33.996Z,15.27
2022-11-15T16:06:00.602Z,9.98
2022-11-15T16:08:42.472Z,8.10
2022-11-15T16:11:17.208Z,9.40
2022-11-15T16:13:43.756Z,11.57
2022-11-15T16:16:14.416Z,11.23
2022-11-15T16:18:40.922Z,12.48
2022-11-15T16:21:09.470Z,13.20
2022-11-15T16:23:35.976Z,13.60
2022-11-15T16:26:04.018Z,13.57
2022-11-15T16:28:33.739Z,10.95
2022-11-15T16:31:11.704Z,11.95
2022-11-15T16:33:39.040Z,10.23
2022-11-15T16:36:07.770Z,17.42
2022-11-15T16:38:34.827Z,18.75
2022-11-15T16:41:01.540Z,8.18
2022-11-15T16:43:28.586Z,11.10
2022-11-15T16:45:55.166Z,7.22
2022-11-15T16:48:27.253Z,7.30
2022-11-15T16:53:25.199Z,8.50
2022-11-15T16:55:51.720Z,8.50
2022-11-15T16:58:18.277Z,9.60
2022-11-15T17:00:45.118Z,7.90
2022-11-15T17:03:12.052Z,9.02
2022-11-15T17:05:38.631Z,15.80
2022-11-15T17:08:05.239Z,6.85
2022-11-15T17:10:31.797Z,15.95
2022-11-15T17:12:58.397Z,7.55
2022-11-15T17:15:25.445Z,16.15
2022-11-15T17:17:55.526Z,16.15
2022-11-15T17:20:24.625Z,12.80
2022-11-15T17:22:52.724Z,14.43
2022-11-15T17:25:19.291Z,8.38
2022-11-15T17:27:46.557Z,8.40
2022-11-15T17:30:15.521Z,11.02
2022-11-15T17:32:42.984Z,14.55
2022-11-15T17:35:15.381Z,10.30
2022-11-15T17:37:42.866Z,7.00
2022-11-15T17:40:10.322Z,8.70
2022-11-15T17:42:36.942Z,10.63
2022-11-15T17:45:09.334Z,7.97
2022-11-15T17:47:37.070Z,10.98
2022-11-15T17:50:04.369Z,13.23
2022-11-15T17:52:30.867Z,15.65
2022-11-15T17:54:57.467Z,11.88
2022-11-15T17:57:24.179Z,7.22
2022-11-15T17:59:50.693Z,11.18
2022-11-15T18:02:17.356Z,12.70
2022-11-15T18:04:43.867Z,16.98
2022-11-15T18:07:12.349Z,12.80
2022-11-15T18:09:42.378Z,13.15
2022-11-15T18:12:09.903Z,15.38
2022-11-15T18:14:36.638Z,12.77
2022-11-15T18:17:03.301Z,13.32
2022-11-15T18:19:29.863Z,16.20
2022-11-15T18:21:56.524Z,15.20
2022-11-15T18:24:29.205Z,15.15
2022-11-15T18:26:56.611Z,15.45
2022-11-15T18:29:24.692Z,16.25
2022-11-15T18:31:55.560Z,14.07
2022-11-15T18:34:24.013Z,11.30
2022-11-15T18:36:52.820Z,14.38
2022-11-15T18:39:19.865Z,12.90
2022-11-15T18:41:46.980Z,12.00
2022-11-15T18:44:13.770Z,17.20
2022-11-15T18:46:40.444Z,17.27
2022-11-15T18:49:12.378Z,13.82
2022-11-15T18:51:41.975Z,22.02
2022-11-15T18:54:11.446Z,12.55
2022-11-15T18:56:38.846Z,15.40
2022-11-15T18:59:06.246Z,14.40
2022-11-15T19:01:35.455Z,14.82
2022-11-15T19:04:20.956Z,16.15
2022-11-15T19:06:49.943Z,14.82
2022-11-15T19:09:18.284Z,14.98
2022-11-15T19:11:46.754Z,12.88
2022-11-15T19:14:15.650Z,11.98
2022-11-15T19:16:54.731Z,15.75
2022-11-15T19:19:23.809Z,11.77
2022-11-15T19:21:51.642Z,13.15
2022-11-15T19:24:18.343Z,12.88
2022-11-15T19:26:45.665Z,11.85
2022-11-15T19:29:13.799Z,13.85
2022-11-15T19:31:40.648Z,16.33
2022-11-15T19:34:08.127Z,11.45
2022-11-15T19:36:39.935Z,12.40
2022-11-15T19:39:09.948Z,13.20
2022-11-15T19:41:38.774Z,15.52
2022-11-15T19:44:06.599Z,12.90
2022-11-15T19:46:33.811Z,13.32
2022-11-15T19:49:00.586Z,14.05
2022-11-15T19:51:29.369Z,16.23
2022-11-15T19:53:58.014Z,14.82
2022-11-15T19:56:24.866Z,16.45
2022-11-15T19:58:53.256Z,15.38
2022-11-15T20:01:31.763Z,15.65
2022-11-15T20:03:59.930Z,14.05
2022-11-15T20:06:29.504Z,15.30
2022-11-15T20:08:56.580Z,15.63
2022-11-15T20:11:23.538Z,17.23
2022-11-15T20:13:50.417Z,16.15
2022-11-15T20:16:20.073Z,19.45
2022-11-15T20:18:48.021Z,17.73
2022-11-15T20:21:14.998Z,17.48
2022-11-15T20:23:41.741Z,19.23
2022-11-15T20:26:09.470Z,18.30
2022-11-15T20:28:38.405Z,19.17
2022-11-15T20:31:05.782Z,19.45
2022-11-15T20:33:32.496Z,24.70
2022-11-15T20:36:03.553Z,19.50
2022-11-15T20:38:30.195Z,23.85
2022-11-15T20:41:00.174Z,17.23
2022-11-15T20:43:27.558Z,21.23
2022-11-15T20:45:54.165Z,21.05
2022-11-15T20:48:20.837Z,22.33
2022-11-15T20:50:47.691Z,19.08
2022-11-15T20:53:17.851Z,26.35
2022-11-15T20:55:49.706Z,25.30
2022-11-15T20:58:17.529Z,19.00
2022-11-15T21:00:45.731Z,15.38
2022-11-15T21:03:14.109Z,20.90
2022-11-15T21:05:42.453Z,20.58
2022-11-15T21:08:10.138Z,14.15
2022-11-15T21:10:55.053Z,18.70
2022-11-15T21:13:22.146Z,17.98
2022-11-15T21:15:48.743Z,21.90
2022-11-15T21:18:15.525Z,15.88
2022-11-15T21:20:42.515Z,19.13
2022-11-15T21:23:09.186Z,17.10
2022-11-15T21:25:36.005Z,11.75
2022-11-15T21:28:02.971Z,13.07
2022-11-15T21:30:29.973Z,11.70
2022-11-15T21:32:56.625Z,13.73
2022-11-15T21:35:23.894Z,13.32
2022-11-15T21:37:56.071Z,15.38
2022-11-15T21:40:22.813Z,14.75
2022-11-15T21:42:49.338Z,17.85
2022-11-15T21:45:15.932Z,19.90
2022-11-15T21:47:46.062Z,20.48
2022-11-15T21:50:13.575Z,16.40
2022-11-15T21:52:40.817Z,17.60
2022-11-15T21:55:08.228Z,22.98
2022-11-15T21:57:34.880Z,20.50
2022-11-15T22:00:20.404Z,17.35
2022-11-15T22:02:46.949Z,18.73
2022-11-15T22:05:13.653Z,24.83
2022-11-15T22:07:40.182Z,22.17
2022-11-15T22:10:07.152Z,25.10
2022-11-15T22:12:33.706Z,20.35
2022-11-15T22:15:00.319Z,22.13
2022-11-15T22:17:46.868Z,19.50
2022-11-15T22:20:37.602Z,18.77
2022-11-15T22:23:00.612Z,18.63
2022-11-15T22:25:27.194Z,21.08
2022-11-15T22:27:54.459Z,16.17
2022-11-15T22:30:21.692Z,15.98
2022-11-15T22:32:48.273Z,15.38
2022-11-15T22:35:15.827Z,16.70
2022-11-15T22:37:42.356Z,15.38
2022-11-15T22:40:09.658Z,15.38
2022-11-15T22:42:36.392Z,14.18
2022-11-15T22:45:03.107Z,19.10
2022-11-15T22:47:29.691Z,15.52
2022-11-15T22:49:56.306Z,14.43
2022-11-15T22:52:22.830Z,14.95
2022-11-15T22:54:49.436Z,10.38
2022-11-15T22:57:16.048Z,9.90
2022-11-15T22:59:42.768Z,8.32
2022-11-15T23:02:09.317Z,6.63
2022-11-15T23:04:35.879Z,8.05
2022-11-15T23:07:02.570Z,6.72
2022-11-15T23:09:29.163Z,9.32
2022-11-15T23:12:14.404Z,12.43
2022-11-15T23:14:41.030Z,6.10
2022-11-15T23:17:07.603Z,6.13
2022-11-15T23:19:34.216Z,9.20
2022-11-15T23:22:19.399Z,5.38
2022-11-15T23:24:46.571Z,7.57
2022-11-15T23:27:15.598Z,5.45
2022-11-15T23:30:14.361Z,4.80
2022-11-15T23:32:59.149Z,4.55
2022-11-15T23:35:26.786Z,6.45
2022-11-15T23:37:53.314Z,6.20
2022-11-15T23:40:20.065Z,5.75
2022-11-15T23:42:46.621Z,8.57
2022-11-15T23:45:13.200Z,4.32
2022-11-15T23:47:39.883Z,4.45
2022-11-15T23:50:06.995Z,4.60
2022-11-15T23:52:33.591Z,5.30
2022-11-15T23:55:00.162Z,5.97
2022-11-15T23:57:26.742Z,4.10
2022-11-15T23:59:53.591Z,3.92
